createdAt,value
2023-05-10T00:02:24.789Z,14.61
2023-05-10T00:05:09.903Z,14.63
2023-05-10T00:07:54.706Z,14.54
2023-05-10T00:10:40.108Z,14.49
2023-05-10T00:13:25.244Z,14.55
2023-05-10T00:16:10.838Z,14.59
2023-05-10T00:18:56.177Z,14.58
2023-05-10T00:21:41.540Z,14.62
2023-05-10T00:24:26.904Z,14.56
2023-05-10T00:27:11.846Z,14.45
2023-05-10T00:29:56.707Z,14.52
2023-05-10T00:32:41.860Z,14.45
2023-05-10T00:35:27.137Z,14.45
2023-05-10T00:38:11.965Z,14.44
2023-05-10T00:40:56.691Z,14.39
2023-05-10T00:43:42.289Z,14.52
2023-05-10T00:46:27.714Z,14.52
2023-05-10T00:49:13.310Z,14.43
2023-05-10T00:51:58.999Z,14.32
2023-05-10T00:54:44.024Z,14.32
2023-05-10T00:57:29.359Z,14.45
2023-05-10T01:00:15.764Z,14.50
2023-05-10T01:03:02.198Z,14.58
2023-05-10T01:05:47.449Z,14.54
2023-05-10T01:08:33.247Z,14.64
2023-05-10T01:11:18.341Z,14.67
2023-05-10T01:14:04.379Z,14.61
2023-05-10T01:16:50.748Z,14.78
2023-05-10T01:19:36.259Z,14.90
2023-05-10T01:22:42.935Z,14.75
2023-05-10T01:25:27.850Z,14.68
2023-05-10T01:28:50.536Z,14.56
2023-05-10T01:32:17.113Z,14.43
2023-05-10T01:35:05.440Z,14.37
2023-05-10T01:38:00.467Z,14.05
2023-05-10T01:41:04.004Z,13.71
2023-05-10T01:44:02.508Z,13.56
2023-05-10T01:46:54.133Z,13.51
2023-05-10T01:49:46.535Z,13.32
2023-05-10T01:52:36.464Z,13.11
2023-05-10T01:55:25.129Z,13.18
2023-05-10T01:58:14.158Z,13.20
2023-05-10T02:01:02.321Z,13.14
2023-05-10T02:03:50.833Z,13.13
2023-05-10T02:06:37.551Z,13.18
2023-05-10T02:09:24.845Z,13.06
2023-05-10T02:12:10.409Z,13.06
2023-05-10T02:14:56.966Z,13.12
2023-05-10T02:17:43.423Z,13.17
2023-05-10T02:20:29.129Z,13.00
2023-05-10T02:23:16.324Z,12.96
2023-05-10T02:26:03.236Z,13.02
2023-05-10T02:28:49.576Z,12.90
2023-05-10T02:31:36.182Z,12.92
2023-05-10T02:34:27.847Z,12.84
2023-05-10T02:37:15.455Z,12.94
2023-05-10T02:40:02.200Z,13.03
2023-05-10T02:42:49.929Z,13.02
2023-05-10T02:45:37.320Z,12.99
2023-05-10T02:48:22.595Z,13.13
2023-05-10T02:51:09.250Z,13.23
2023-05-10T02:53:56.029Z,12.97
2023-05-10T02:56:48.005Z,12.95
2023-05-10T02:59:33.440Z,12.93
2023-05-10T03:02:19.202Z,12.86
2023-05-10T03:05:04.641Z,12.89
2023-05-10T03:07:50.721Z,12.85
2023-05-10T03:11:11.776Z,12.77
2023-05-10T03:14:08.418Z,12.86
2023-05-10T03:17:01.363Z,12.90
2023-05-10T03:20:04.910Z,12.92
2023-05-10T03:22:56.806Z,12.94
2023-05-10T03:25:43.174Z,12.98
2023-05-10T03:28:28.870Z,12.99
2023-05-10T03:31:14.737Z,13.10
2023-05-10T03:33:59.826Z,13.12
2023-05-10T03:36:45.189Z,13.11
2023-05-10T03:39:30.537Z,12.93
2023-05-10T03:42:15.915Z,12.93
2023-05-10T03:45:01.395Z,12.86
2023-05-10T03:47:46.557Z,12.81
2023-05-10T03:50:32.083Z,12.91
2023-05-10T03:53:17.740Z,12.76
2023-05-10T03:56:03.187Z,12.83
2023-05-10T03:58:48.394Z,12.68
2023-05-10T04:01:35.002Z,12.67
2023-05-10T04:04:20.262Z,12.71
2023-05-10T04:07:05.661Z,12.62
2023-05-10T04:09:50.978Z,12.68
2023-05-10T04:12:36.496Z,12.66
2023-05-10T04:15:21.762Z,12.68
2023-05-10T04:18:08.651Z,12.65
2023-05-10T04:20:54.058Z,12.57
2023-05-10T04:23:39.419Z,12.60
2023-05-10T04:26:24.550Z,12.62
2023-05-10T04:29:09.686Z,12.66
2023-05-10T04:31:55.701Z,12.68
2023-05-10T04:34:40.513Z,12.71
2023-05-10T04:37:25.992Z,12.65
2023-05-10T04:40:11.458Z,12.64
2023-05-10T04:42:56.624Z,12.64
2023-05-10T04:45:42.036Z,12.71
2023-05-10T04:48:26.798Z,12.69
2023-05-10T04:51:12.211Z,12.68
2023-05-10T04:54:06.161Z,12.73
2023-05-10T04:56:51.739Z,12.71
2023-05-10T04:59:37.370Z,12.77
2023-05-10T05:02:22.507Z,12.71
2023-05-10T05:05:08.454Z,12.67
2023-05-10T05:07:53.399Z,12.71
2023-05-10T05:10:38.727Z,12.85
2023-05-10T05:13:24.109Z,12.71
2023-05-10T05:16:09.793Z,12.74
2023-05-10T05:18:54.935Z,12.77
2023-05-10T05:21:40.772Z,12.65
2023-05-10T05:24:25.843Z,12.50
2023-05-10T05:27:10.901Z,12.63
2023-05-10T05:29:57.160Z,12.47
2023-05-10T05:32:42.566Z,12.35
2023-05-10T05:35:27.875Z,12.42
2023-05-10T05:38:13.271Z,12.38
2023-05-10T05:40:58.733Z,12.42
2023-05-10T05:43:44.078Z,12.22
2023-05-10T05:46:29.352Z,12.41
2023-05-10T05:49:14.234Z,12.24
2023-05-10T05:52:00.863Z,12.37
2023-05-10T05:54:46.346Z,12.38
2023-05-10T05:57:31.682Z,12.42
2023-05-10T06:00:17.214Z,12.33
2023-05-10T06:03:02.265Z,12.42
2023-05-10T06:05:47.774Z,12.60
2023-05-10T06:08:32.950Z,12.66
2023-05-10T06:11:18.300Z,12.63
2023-05-10T06:14:05.044Z,12.61
2023-05-10T06:16:50.783Z,12.59
2023-05-10T06:19:35.868Z,12.68
2023-05-10T06:22:21.458Z,12.70
2023-05-10T06:25:07.171Z,12.77
2023-05-10T06:27:53.893Z,12.83
2023-05-10T06:30:39.077Z,12.75
2023-05-10T06:33:24.321Z,12.57
2023-05-10T06:36:09.271Z,12.44
2023-05-10T06:38:54.567Z,12.23
2023-05-10T06:41:39.944Z,12.28
2023-05-10T06:44:25.483Z,12.25
2023-05-10T06:47:10.835Z,12.38
2023-05-10T06:49:56.432Z,12.17
2023-05-10T06:52:41.774Z,12.23
2023-05-10T06:55:27.512Z,12.28
2023-05-10T06:58:12.910Z,12.34
2023-05-10T07:01:03.559Z,12.43
2023-05-10T07:03:48.601Z,12.30
2023-05-10T07:06:34.131Z,12.40
2023-05-10T07:09:19.465Z,12.47
2023-05-10T07:12:05.107Z,12.61
2023-05-10T07:14:50.303Z,12.44
2023-05-10T07:17:35.610Z,12.43
2023-05-10T07:20:20.962Z,12.53
2023-05-10T07:23:06.271Z,12.58
2023-05-10T07:25:52.331Z,12.57
2023-05-10T07:28:37.482Z,12.76
2023-05-10T07:31:23.077Z,12.84
2023-05-10T07:34:08.515Z,12.72
2023-05-10T07:36:54.076Z,12.84
2023-05-10T07:39:39.356Z,12.89
2023-05-10T07:42:24.859Z,12.94
2023-05-10T07:45:10.544Z,12.98
2023-05-10T07:47:55.623Z,13.18
2023-05-10T07:50:41.013Z,13.27
2023-05-10T07:53:27.468Z,13.14
2023-05-10T07:56:27.368Z,13.33
2023-05-10T07:59:16.583Z,13.44
2023-05-10T08:02:02.032Z,13.45
2023-05-10T08:04:47.339Z,13.33
2023-05-10T08:07:33.369Z,13.42
2023-05-10T08:10:18.396Z,13.39
2023-05-10T08:13:03.930Z,13.35
2023-05-10T08:15:49.251Z,13.15
2023-05-10T08:18:34.670Z,13.09
2023-05-10T08:21:20.099Z,13.30
2023-05-10T08:24:05.832Z,13.17
2023-05-10T08:26:51.112Z,13.36
2023-05-10T08:29:48.844Z,13.15
2023-05-10T08:32:34.577Z,13.13
2023-05-10T08:35:19.861Z,13.29
2023-05-10T08:38:05.160Z,13.14
2023-05-10T08:40:50.603Z,13.13
2023-05-10T08:43:36.877Z,13.19
2023-05-10T08:46:23.626Z,13.19
2023-05-10T08:49:11.987Z,13.09
2023-05-10T08:51:58.552Z,13.15
2023-05-10T08:54:43.728Z,13.11
2023-05-10T08:57:28.950Z,13.11
2023-05-10T09:00:14.694Z,13.29
2023-05-10T09:03:00.643Z,13.38
2023-05-10T09:05:46.383Z,13.65
2023-05-10T09:08:32.066Z,13.91
2023-05-10T09:11:17.318Z,13.97
2023-05-10T09:14:02.855Z,14.07
2023-05-10T09:16:48.347Z,13.87
2023-05-10T09:19:33.264Z,14.06
2023-05-10T09:22:18.757Z,14.32
2023-05-10T09:25:15.484Z,14.82
2023-05-10T09:28:01.128Z,14.88
2023-05-10T09:30:54.390Z,14.97
2023-05-10T09:33:46.666Z,15.14
2023-05-10T09:36:32.174Z,15.50
2023-05-10T09:39:18.114Z,15.89
2023-05-10T09:42:08.650Z,16.07
2023-05-10T09:44:54.353Z,16.05
2023-05-10T09:47:39.725Z,16.22
2023-05-10T09:50:26.897Z,16.67
2023-05-10T09:53:16.666Z,16.60
2023-05-10T09:56:01.762Z,16.16
2023-05-10T09:58:47.250Z,16.39
2023-05-10T10:01:34.027Z,16.79
2023-05-10T10:04:20.918Z,17.03
2023-05-10T10:07:06.151Z,17.12
2023-05-10T10:09:52.409Z,16.84
2023-05-10T10:12:37.583Z,16.17
2023-05-10T10:15:23.533Z,15.66
2023-05-10T10:18:13.257Z,15.60
2023-05-10T10:20:59.145Z,15.64
2023-05-10T10:23:44.600Z,15.79
2023-05-10T10:26:32.135Z,15.78
2023-05-10T10:29:27.339Z,16.33
2023-05-10T10:32:25.558Z,16.04
2023-05-10T10:35:10.968Z,16.31
2023-05-10T10:37:56.693Z,16.63
2023-05-10T10:40:42.254Z,16.87
2023-05-10T10:43:28.719Z,16.56
2023-05-10T10:46:16.073Z,17.06
2023-05-10T10:49:11.269Z,17.14
2023-05-10T10:52:15.418Z,17.15
2023-05-10T10:55:01.987Z,17.24
2023-05-10T10:57:52.834Z,17.29
2023-05-10T11:00:38.556Z,17.36
2023-05-10T11:03:23.787Z,17.31
2023-05-10T11:06:08.725Z,17.11
2023-05-10T11:08:53.705Z,16.65
2023-05-10T11:11:55.739Z,15.93
2023-05-10T11:14:41.102Z,15.75
2023-05-10T11:17:28.256Z,15.75
2023-05-10T11:20:16.181Z,15.76
2023-05-10T11:23:15.729Z,15.77
2023-05-10T11:26:01.850Z,16.30
2023-05-10T11:28:49.231Z,16.27
2023-05-10T11:31:34.474Z,16.46
2023-05-10T11:34:27.545Z,16.13
2023-05-10T11:37:12.763Z,15.83
2023-05-10T11:39:57.682Z,15.30
2023-05-10T11:42:42.581Z,14.59
2023-05-10T11:45:27.716Z,14.47
2023-05-10T11:48:12.849Z,14.29
2023-05-10T11:50:58.559Z,14.27
2023-05-10T11:53:43.712Z,14.25
2023-05-10T11:56:29.157Z,14.44
2023-05-10T11:59:15.364Z,14.45
2023-05-10T12:02:00.490Z,14.54
2023-05-10T12:04:46.049Z,14.38
2023-05-10T12:07:31.119Z,14.38
2023-05-10T12:10:16.467Z,14.45
2023-05-10T12:13:01.913Z,14.42
2023-05-10T12:15:47.044Z,14.59
2023-05-10T12:18:32.291Z,14.71
2023-05-10T12:21:19.050Z,14.65
2023-05-10T12:24:04.846Z,14.87
2023-05-10T12:26:51.208Z,14.77
2023-05-10T12:29:36.189Z,14.90
2023-05-10T12:32:21.163Z,15.55
2023-05-10T12:35:07.495Z,15.49
2023-05-10T12:37:52.557Z,15.34
2023-05-10T12:40:38.554Z,15.46
2023-05-10T12:43:23.762Z,15.59
2023-05-10T12:46:14.495Z,15.64
2023-05-10T12:49:08.530Z,15.75
2023-05-10T12:51:54.273Z,15.62
2023-05-10T12:54:39.579Z,15.60
2023-05-10T12:57:24.594Z,15.59
2023-05-10T13:00:10.444Z,15.62
2023-05-10T13:02:55.833Z,15.52
2023-05-10T13:05:41.245Z,15.39
2023-05-10T13:08:26.536Z,15.46
2023-05-10T13:11:12.141Z,15.43
2023-05-10T13:13:57.671Z,15.40
2023-05-10T13:16:44.376Z,15.32
2023-05-10T13:19:29.828Z,15.36
2023-05-10T13:22:17.205Z,15.43
2023-05-10T13:25:06.173Z,15.43
2023-05-10T13:27:51.068Z,15.22
2023-05-10T13:30:36.198Z,15.10
2023-05-10T13:33:21.445Z,15.27
2023-05-10T13:36:07.353Z,15.20
2023-05-10T13:38:52.375Z,15.44
2023-05-10T13:41:37.864Z,15.45
2023-05-10T13:44:22.586Z,15.66
2023-05-10T13:47:07.992Z,15.45
2023-05-10T13:49:53.379Z,15.78
2023-05-10T13:52:38.131Z,16.00
2023-05-10T13:55:23.119Z,16.16
2023-05-10T13:58:08.525Z,16.44
2023-05-10T14:00:54.109Z,16.43
2023-05-10T14:03:39.325Z,16.50
2023-05-10T14:06:24.863Z,16.43
2023-05-10T14:09:10.280Z,16.17
2023-05-10T14:11:55.817Z,16.33
2023-05-10T14:14:41.350Z,16.50
2023-05-10T14:17:26.224Z,16.48
2023-05-10T14:20:12.259Z,16.70
2023-05-10T14:22:57.362Z,16.89
2023-05-10T14:25:43.030Z,16.96
2023-05-10T14:28:28.190Z,16.86
2023-05-10T14:31:13.563Z,17.02
2023-05-10T14:33:58.629Z,17.17
2023-05-10T14:36:43.962Z,17.31
2023-05-10T14:39:29.149Z,17.48
2023-05-10T14:42:14.350Z,17.52
2023-05-10T14:44:59.304Z,17.53
2023-05-10T14:47:44.940Z,17.70
2023-05-10T14:50:35.787Z,17.48
2023-05-10T14:53:21.940Z,17.64
2023-05-10T14:56:07.042Z,17.60
2023-05-10T14:58:52.492Z,17.64
2023-05-10T15:01:38.464Z,17.72
2023-05-10T15:04:23.774Z,17.84
2023-05-10T15:07:09.666Z,17.96
2023-05-10T15:09:55.690Z,17.40
2023-05-10T15:12:40.969Z,17.11
2023-05-10T15:15:26.521Z,16.82
2023-05-10T15:18:11.635Z,16.92
2023-05-10T15:20:56.964Z,17.02
2023-05-10T15:23:42.364Z,16.89
2023-05-10T15:26:27.177Z,16.88
2023-05-10T15:29:12.773Z,16.72
2023-05-10T15:31:57.666Z,16.27
2023-05-10T15:34:42.996Z,16.34
2023-05-10T15:37:28.119Z,16.31
2023-05-10T15:40:13.456Z,16.17
2023-05-10T15:42:58.964Z,16.21
2023-05-10T15:45:44.701Z,16.10
2023-05-10T15:48:29.997Z,16.08
2023-05-10T15:51:15.289Z,15.98
2023-05-10T15:54:07.263Z,15.90
2023-05-10T15:56:53.379Z,15.91
2023-05-10T15:59:38.339Z,15.91
2023-05-10T16:02:23.406Z,15.50
2023-05-10T16:05:09.703Z,15.45
2023-05-10T16:07:55.015Z,15.29
2023-05-10T16:10:40.283Z,15.30
2023-05-10T16:13:25.984Z,15.20
2023-05-10T16:16:11.101Z,15.07
2023-05-10T16:18:58.521Z,14.79
2023-05-10T16:21:43.967Z,14.80
2023-05-10T16:24:29.142Z,14.80
2023-05-10T16:27:14.456Z,14.88
2023-05-10T16:29:59.738Z,14.79
2023-05-10T16:32:44.610Z,14.58
2023-05-10T16:35:30.369Z,14.47
2023-05-10T16:38:15.410Z,14.59
2023-05-10T16:41:04.155Z,14.58
2023-05-10T16:43:49.380Z,14.52
2023-05-10T16:46:34.786Z,14.54
2023-05-10T16:49:20.658Z,14.51
2023-05-10T16:52:05.702Z,14.52
2023-05-10T16:54:50.566Z,14.56
2023-05-10T16:57:35.938Z,14.47
2023-05-10T17:00:20.936Z,14.21
2023-05-10T17:03:06.475Z,14.20
2023-05-10T17:05:51.756Z,14.23
2023-05-10T17:08:36.595Z,14.26
2023-05-10T17:11:21.494Z,14.05
2023-05-10T17:14:07.048Z,13.91
2023-05-10T17:16:52.544Z,13.85
2023-05-10T17:19:37.633Z,13.82
2023-05-10T17:22:23.086Z,13.77
2023-05-10T17:25:08.723Z,13.65
2023-05-10T17:27:53.790Z,13.50
2023-05-10T17:30:38.596Z,13.47
2023-05-10T17:33:24.007Z,13.35
2023-05-10T17:36:09.207Z,13.34
2023-05-10T17:38:54.568Z,13.34
2023-05-10T17:41:40.359Z,13.31
2023-05-10T17:44:25.631Z,13.26
2023-05-10T17:47:10.676Z,13.22
2023-05-10T17:49:55.585Z,13.14
2023-05-10T17:52:41.056Z,13.06
2023-05-10T17:55:25.869Z,12.95
2023-05-10T17:58:12.233Z,12.92
2023-05-10T18:00:57.843Z,12.90
2023-05-10T18:03:42.974Z,12.99
2023-05-10T18:06:28.462Z,13.00
2023-05-10T18:09:13.765Z,13.05
2023-05-10T18:11:59.227Z,12.92
2023-05-10T18:14:44.667Z,12.97
2023-05-10T18:17:29.763Z,12.97
2023-05-10T18:20:15.041Z,12.95
2023-05-10T18:23:00.382Z,12.92
2023-05-10T18:25:45.547Z,12.96
2023-05-10T18:28:30.937Z,12.95
2023-05-10T18:31:16.439Z,12.93
2023-05-10T18:34:02.004Z,12.97
2023-05-10T18:36:47.314Z,13.05
2023-05-10T18:39:32.443Z,12.96
2023-05-10T18:42:17.517Z,12.96
2023-05-10T18:45:03.141Z,12.96
2023-05-10T18:47:48.326Z,12.99
2023-05-10T18:50:33.816Z,13.05
2023-05-10T18:53:19.197Z,13.21
2023-05-10T18:56:04.598Z,13.38
2023-05-10T18:58:49.796Z,13.47
2023-05-10T19:01:34.922Z,13.50
2023-05-10T19:04:20.321Z,13.53
2023-05-10T19:07:05.777Z,13.60
2023-05-10T19:09:51.173Z,13.48
2023-05-10T19:12:36.495Z,13.49
2023-05-10T19:15:22.035Z,13.39
2023-05-10T19:18:09.073Z,13.38
2023-05-10T19:20:54.784Z,13.29
2023-05-10T19:23:40.172Z,13.38
2023-05-10T19:26:24.953Z,13.41
2023-05-10T19:29:09.737Z,13.42
2023-05-10T19:31:55.256Z,13.46
2023-05-10T19:34:40.771Z,13.31
2023-05-10T19:37:25.523Z,13.41
2023-05-10T19:40:12.260Z,13.38
2023-05-10T19:42:57.377Z,13.30
2023-05-10T19:45:43.007Z,13.38
2023-05-10T19:48:29.096Z,13.22
2023-05-10T19:51:16.363Z,13.30
2023-05-10T19:54:01.434Z,13.38
2023-05-10T19:56:46.724Z,13.34
2023-05-10T19:59:32.127Z,13.49
2023-05-10T20:02:17.509Z,13.44
2023-05-10T20:05:02.876Z,13.38
2023-05-10T20:07:48.045Z,13.24
2023-05-10T20:10:33.268Z,13.12
2023-05-10T20:13:18.783Z,13.05
2023-05-10T20:16:04.020Z,12.99
2023-05-10T20:18:49.394Z,13.02
2023-05-10T20:21:34.433Z,13.08
2023-05-10T20:24:19.762Z,13.00
2023-05-10T20:27:05.278Z,13.04
2023-05-10T20:29:50.575Z,13.07
2023-05-10T20:32:36.676Z,13.10
2023-05-10T20:35:21.747Z,13.07
2023-05-10T20:38:07.131Z,13.01
2023-05-10T20:40:52.569Z,12.98
2023-05-10T20:43:37.874Z,13.18
2023-05-10T20:46:23.641Z,13.10
2023-05-10T20:49:09.234Z,12.89
2023-05-10T20:51:55.826Z,12.78
2023-05-10T20:54:41.010Z,12.74
2023-05-10T20:57:26.486Z,12.79
2023-05-10T21:00:12.240Z,12.75
2023-05-10T21:02:57.454Z,12.75
2023-05-10T21:05:42.812Z,12.75
2023-05-10T21:08:28.146Z,12.79
2023-05-10T21:11:13.472Z,12.85
2023-05-10T21:13:59.178Z,12.84
2023-05-10T21:16:44.283Z,12.81
2023-05-10T21:19:29.701Z,12.94
2023-05-10T21:22:15.195Z,12.83
2023-05-10T21:25:00.496Z,12.73
2023-05-10T21:27:45.359Z,12.69
2023-05-10T21:30:32.544Z,12.66
2023-05-10T21:33:17.847Z,12.63
2023-05-10T21:36:03.872Z,12.57
2023-05-10T21:38:49.238Z,12.56
2023-05-10T21:41:34.644Z,12.60
2023-05-10T21:44:19.571Z,12.72
2023-05-10T21:47:05.309Z,12.70
2023-05-10T21:49:50.362Z,12.65
2023-05-10T21:52:36.360Z,12.78
2023-05-10T21:55:21.701Z,12.81
2023-05-10T21:58:06.813Z,12.90
2023-05-10T22:00:52.280Z,13.01
2023-05-10T22:03:37.875Z,13.10
2023-05-10T22:06:23.146Z,13.05
2023-05-10T22:09:08.125Z,13.09
2023-05-10T22:11:53.365Z,13.09
2023-05-10T22:14:38.846Z,13.15
2023-05-10T22:17:24.174Z,13.06
2023-05-10T22:20:09.856Z,13.12
2023-05-10T22:22:55.387Z,13.13
2023-05-10T22:25:40.773Z,13.15
2023-05-10T22:28:26.113Z,13.17
2023-05-10T22:31:12.152Z,13.20
2023-05-10T22:33:57.484Z,13.27
2023-05-10T22:36:43.030Z,13.28
2023-05-10T22:39:28.366Z,13.21
2023-05-10T22:42:13.515Z,13.22
2023-05-10T22:44:58.932Z,13.24
2023-05-10T22:47:44.352Z,13.22
2023-05-10T22:50:30.344Z,13.27
2023-05-10T22:53:15.906Z,13.31
2023-05-10T22:56:01.389Z,13.33
2023-05-10T22:58:46.682Z,13.35
2023-05-10T23:01:32.139Z,13.29
2023-05-10T23:04:17.562Z,13.28
2023-05-10T23:07:02.879Z,13.21
2023-05-10T23:09:48.353Z,13.30
2023-05-10T23:12:33.734Z,13.32
2023-05-10T23:15:19.221Z,13.39
2023-05-10T23:18:04.534Z,13.31
2023-05-10T23:20:49.879Z,13.32
2023-05-10T23:23:34.852Z,13.36
2023-05-10T23:26:20.110Z,13.33
2023-05-10T23:29:05.043Z,13.27
2023-05-10T23:31:50.441Z,13.23
2023-05-10T23:34:36.321Z,13.14
2023-05-10T23:37:21.321Z,13.11
2023-05-10T23:40:07.612Z,13.07
2023-05-10T23:42:53.394Z,13.06
2023-05-10T23:45:38.532Z,13.01
2023-05-10T23:48:24.231Z,13.14
2023-05-10T23:51:09.343Z,13.15
2023-05-10T23:53:54.532Z,13.11
2023-05-10T23:56:39.777Z,13.21
2023-05-10T23:59:25.390Z,13.26
